createdAt,value
2018-12-14T00:00:54.494Z,24.83
2018-12-14T00:03:22.909Z,24.10
2018-12-14T00:05:51.295Z,24.13
2018-12-14T00:08:19.878Z,23.93
2018-12-14T00:10:48.258Z,23.33
2018-12-14T00:13:16.656Z,24.33
2018-12-14T00:15:45.034Z,22.10
2018-12-14T00:18:13.420Z,21.70
2018-12-14T00:20:41.854Z,21.03
2018-12-14T00:23:10.259Z,21.00
2018-12-14T00:25:38.635Z,25.23
2018-12-14T00:28:07.052Z,20.97
2018-12-14T00:30:35.433Z,22.47
2018-12-14T00:33:03.821Z,21.07
2018-12-14T00:35:32.325Z,20.97
2018-12-14T00:38:00.736Z,23.30
2018-12-14T00:40:29.112Z,23.97
2018-12-14T00:42:57.521Z,22.23
2018-12-14T00:45:25.905Z,23.63
2018-12-14T00:47:54.312Z,22.23
2018-12-14T00:50:22.712Z,24.13
2018-12-14T00:52:51.113Z,22.60
2018-12-14T00:55:19.484Z,23.80
2018-12-14T00:57:47.871Z,25.33
2018-12-14T01:00:16.264Z,26.80
2018-12-14T01:02:44.677Z,25.40
2018-12-14T01:05:13.076Z,22.43
2018-12-14T01:07:41.466Z,25.10
2018-12-14T01:10:10.001Z,24.83
2018-12-14T01:12:38.513Z,26.57
2018-12-14T01:15:07.345Z,22.73
2018-12-14T01:17:35.714Z,23.47
2018-12-14T01:20:04.749Z,23.37
2018-12-14T01:22:33.144Z,25.60
2018-12-14T01:25:01.544Z,20.93
2018-12-14T01:27:29.940Z,23.77
2018-12-14T01:29:58.388Z,26.67
2018-12-14T01:32:26.788Z,24.07
2018-12-14T01:34:55.213Z,24.87
2018-12-14T01:37:23.585Z,22.97
2018-12-14T01:39:51.985Z,25.13
2018-12-14T01:42:20.393Z,24.53
2018-12-14T01:44:48.808Z,19.57
2018-12-14T01:47:17.192Z,23.13
2018-12-14T01:49:45.597Z,24.27
2018-12-14T01:52:13.985Z,24.10
2018-12-14T01:54:42.462Z,22.67
2018-12-14T01:57:10.901Z,25.03
2018-12-14T01:59:39.325Z,23.60
2018-12-14T02:02:07.713Z,22.23
2018-12-14T02:04:36.115Z,24.43
2018-12-14T02:07:04.545Z,23.73
2018-12-14T02:09:32.949Z,22.97
2018-12-14T02:12:01.412Z,23.70
2018-12-14T02:14:29.913Z,25.17
2018-12-14T02:16:58.333Z,22.57
2018-12-14T02:19:26.750Z,22.93
2018-12-14T02:21:55.272Z,21.93
2018-12-14T02:24:23.736Z,22.77
2018-12-14T02:26:52.132Z,22.33
2018-12-14T02:29:20.522Z,22.63
2018-12-14T02:31:48.932Z,21.73
2018-12-14T02:34:17.417Z,22.07
2018-12-14T02:36:45.824Z,20.73
2018-12-14T02:39:14.210Z,21.00
2018-12-14T02:41:42.642Z,21.77
2018-12-14T02:44:11.036Z,21.23
2018-12-14T02:46:39.429Z,22.47
2018-12-14T02:49:07.824Z,22.67
2018-12-14T02:51:36.228Z,23.33
2018-12-14T02:54:04.740Z,19.87
2018-12-14T02:56:33.176Z,20.23
2018-12-14T02:59:01.579Z,20.67
2018-12-14T03:01:29.993Z,22.00
2018-12-14T03:03:58.409Z,22.97
2018-12-14T03:06:26.836Z,22.40
2018-12-14T03:08:55.253Z,22.27
2018-12-14T03:11:23.656Z,22.63
2018-12-14T03:13:52.076Z,21.00
2018-12-14T03:16:20.482Z,26.80
2018-12-14T03:18:48.917Z,22.07
2018-12-14T03:21:17.325Z,18.87
2018-12-14T03:23:45.738Z,19.87
2018-12-14T03:26:14.252Z,22.20
2018-12-14T03:28:42.661Z,24.57
2018-12-14T03:31:11.049Z,24.53
2018-12-14T03:33:39.537Z,22.77
2018-12-14T03:36:07.935Z,20.23
2018-12-14T03:38:36.351Z,23.47
2018-12-14T03:41:04.762Z,23.30
2018-12-14T03:43:33.168Z,23.23
2018-12-14T03:46:01.558Z,22.43
2018-12-14T03:48:29.992Z,22.30
2018-12-14T03:50:58.976Z,21.27
2018-12-14T03:53:27.387Z,20.07
2018-12-14T03:55:55.782Z,21.13
2018-12-14T03:58:24.198Z,20.87
2018-12-14T04:00:52.700Z,19.73
2018-12-14T04:03:21.076Z,20.13
2018-12-14T04:05:49.585Z,19.80
2018-12-14T04:08:17.953Z,18.97
2018-12-14T04:10:46.385Z,22.13
2018-12-14T04:13:15.052Z,22.27
2018-12-14T04:15:44.600Z,22.00
2018-12-14T04:18:13.200Z,20.30
2018-12-14T04:20:41.627Z,22.03
2018-12-14T04:23:10.011Z,19.03
2018-12-14T04:25:38.425Z,21.47
2018-12-14T04:28:06.816Z,18.87
2018-12-14T04:30:35.223Z,20.17
2018-12-14T04:33:03.650Z,19.23
2018-12-14T04:35:32.247Z,20.93
2018-12-14T04:38:00.672Z,20.50
2018-12-14T04:40:29.073Z,21.13
2018-12-14T04:42:57.462Z,24.00
2018-12-14T04:45:25.870Z,20.67
2018-12-14T04:47:54.265Z,18.90
2018-12-14T04:50:22.685Z,22.07
2018-12-14T04:52:51.064Z,19.73
2018-12-14T04:55:19.469Z,21.40
2018-12-14T04:57:47.850Z,16.87
2018-12-14T05:00:16.247Z,22.10
2018-12-14T05:02:44.644Z,19.47
2018-12-14T05:05:13.029Z,18.13
2018-12-14T05:07:41.441Z,18.07
2018-12-14T05:10:10.058Z,21.83
2018-12-14T05:12:38.462Z,19.30
2018-12-14T05:15:07.681Z,18.63
2018-12-14T05:17:36.265Z,17.33
2018-12-14T05:20:04.950Z,18.33
2018-12-14T05:22:33.357Z,17.40
2018-12-14T05:25:01.742Z,17.07
2018-12-14T05:27:30.150Z,16.83
2018-12-14T05:29:58.845Z,18.37
2018-12-14T05:32:27.252Z,18.03
2018-12-14T05:34:55.620Z,17.23
2018-12-14T05:37:24.012Z,20.97
2018-12-14T05:39:52.393Z,17.67
2018-12-14T05:42:20.798Z,19.47
2018-12-14T05:44:49.181Z,21.07
2018-12-14T05:47:17.707Z,20.37
2018-12-14T05:49:46.085Z,20.93
2018-12-14T05:52:14.613Z,19.33
2018-12-14T05:54:42.999Z,18.13
2018-12-14T05:57:11.678Z,20.77
2018-12-14T05:59:40.085Z,23.27
2018-12-14T06:02:08.478Z,20.13
2018-12-14T06:04:36.881Z,21.83
2018-12-14T06:07:05.256Z,21.53
2018-12-14T06:09:33.679Z,22.67
2018-12-14T06:12:02.765Z,20.73
2018-12-14T06:14:31.169Z,23.00
2018-12-14T06:16:59.664Z,18.47
2018-12-14T06:19:28.056Z,20.37
2018-12-14T06:21:56.530Z,18.07
2018-12-14T06:24:24.949Z,18.50
2018-12-14T06:26:53.336Z,22.53
2018-12-14T06:29:21.752Z,22.60
2018-12-14T06:31:50.124Z,19.27
2018-12-14T06:34:18.521Z,19.63
2018-12-14T06:36:46.919Z,17.60
2018-12-14T06:39:15.502Z,20.73
2018-12-14T06:41:44.199Z,19.20
2018-12-14T06:44:12.623Z,22.63
2018-12-14T06:46:41.047Z,20.53
2018-12-14T06:49:09.451Z,18.57
2018-12-14T06:51:37.869Z,19.93
2018-12-14T06:54:06.292Z,17.67
2018-12-14T06:56:34.681Z,20.33
2018-12-14T06:59:03.152Z,19.47
2018-12-14T07:01:31.644Z,19.27
2018-12-14T07:04:00.054Z,21.20
2018-12-14T07:06:28.444Z,19.70
2018-12-14T07:08:56.849Z,18.93
2018-12-14T07:11:25.265Z,19.70
2018-12-14T07:13:53.675Z,18.80
2018-12-14T07:16:22.056Z,21.23
2018-12-14T07:18:50.481Z,19.17
2018-12-14T07:21:18.888Z,19.87
2018-12-14T07:23:47.282Z,20.50
2018-12-14T07:26:15.688Z,18.43
2018-12-14T07:28:44.078Z,18.43
2018-12-14T07:31:12.514Z,20.10
2018-12-14T07:33:41.034Z,17.73
2018-12-14T07:36:09.445Z,22.13
2018-12-14T07:38:37.864Z,19.73
2018-12-14T07:41:06.248Z,20.10
2018-12-14T07:43:34.655Z,19.67
2018-12-14T07:46:03.163Z,20.63
2018-12-14T07:48:31.562Z,18.40
2018-12-14T07:51:00.328Z,20.20
2018-12-14T07:53:28.712Z,22.80
2018-12-14T07:55:57.149Z,19.63
2018-12-14T07:58:25.561Z,18.67
2018-12-14T08:00:53.985Z,21.43
2018-12-14T08:03:22.375Z,20.80
2018-12-14T08:05:50.762Z,21.73
2018-12-14T08:08:19.212Z,19.37
2018-12-14T08:10:47.595Z,20.50
2018-12-14T08:13:15.983Z,19.83
2018-12-14T08:15:44.449Z,20.97
2018-12-14T08:18:12.876Z,18.67
2018-12-14T08:20:41.285Z,20.13
2018-12-14T08:23:09.716Z,20.63
2018-12-14T08:25:38.112Z,20.80
2018-12-14T08:28:06.500Z,21.80
2018-12-14T08:30:34.896Z,21.07
2018-12-14T08:33:03.271Z,20.43
2018-12-14T08:35:31.727Z,19.13
2018-12-14T08:38:00.148Z,17.07
2018-12-14T08:40:28.533Z,18.20
2018-12-14T08:42:56.968Z,19.93
2018-12-14T08:45:25.339Z,20.10
2018-12-14T08:47:53.977Z,17.73
2018-12-14T08:50:22.355Z,19.33
2018-12-14T08:52:50.727Z,21.13
2018-12-14T08:55:19.173Z,21.40
2018-12-14T08:57:47.557Z,19.50
2018-12-14T09:00:15.954Z,19.73
2018-12-14T09:02:44.356Z,21.33
2018-12-14T09:05:12.751Z,20.63
2018-12-14T09:07:41.177Z,19.20
2018-12-14T09:10:09.716Z,19.83
2018-12-14T09:12:38.121Z,20.37
2018-12-14T09:15:06.757Z,20.63
2018-12-14T09:17:35.148Z,19.57
2018-12-14T09:20:03.710Z,17.97
2018-12-14T09:22:32.112Z,20.50
2018-12-14T09:25:00.497Z,18.23
2018-12-14T09:27:28.899Z,19.07
2018-12-14T09:29:57.283Z,19.17
2018-12-14T09:32:25.701Z,23.03
2018-12-14T09:34:54.252Z,21.07
2018-12-14T09:37:22.657Z,18.27
2018-12-14T09:39:51.089Z,19.30
2018-12-14T09:42:19.501Z,19.17
2018-12-14T09:44:47.900Z,20.83
2018-12-14T09:47:16.309Z,18.77
2018-12-14T09:49:44.698Z,18.00
2018-12-14T09:52:13.110Z,20.47
2018-12-14T09:54:41.498Z,20.90
2018-12-14T09:57:10.043Z,20.60
2018-12-14T09:59:38.430Z,17.53
2018-12-14T10:02:06.974Z,17.93
2018-12-14T10:04:35.359Z,18.87
2018-12-14T10:07:03.798Z,20.53
2018-12-14T10:09:32.208Z,18.27
2018-12-14T10:12:00.615Z,20.07
2018-12-14T10:14:29.003Z,18.60
2018-12-14T10:16:57.421Z,16.97
2018-12-14T10:19:25.806Z,16.20
2018-12-14T10:21:54.308Z,18.97
2018-12-14T10:24:22.716Z,18.17
2018-12-14T10:26:51.101Z,19.60
2018-12-14T10:29:19.513Z,18.03
2018-12-14T10:31:47.896Z,17.67
2018-12-14T10:34:16.299Z,19.13
2018-12-14T10:36:44.721Z,18.30
2018-12-14T10:39:13.133Z,21.60
2018-12-14T10:41:41.506Z,17.13
2018-12-14T10:44:09.925Z,17.40
2018-12-14T10:46:38.324Z,19.13
2018-12-14T10:49:06.828Z,17.53
2018-12-14T10:51:35.489Z,18.17
2018-12-14T10:54:03.922Z,18.43
2018-12-14T10:56:32.299Z,18.80
2018-12-14T10:59:00.746Z,18.33
2018-12-14T11:01:34.601Z,18.67
2018-12-14T11:04:03.014Z,19.93
2018-12-14T11:06:31.394Z,18.23
2018-12-14T11:08:59.801Z,20.97
2018-12-14T11:11:28.192Z,17.03
2018-12-14T11:13:56.621Z,16.03
2018-12-14T11:16:25.000Z,19.37
2018-12-14T11:18:53.413Z,16.67
2018-12-14T11:21:21.833Z,17.50
2018-12-14T11:23:50.250Z,18.07
2018-12-14T11:26:18.658Z,17.37
2018-12-14T11:28:47.045Z,17.23
2018-12-14T11:31:15.456Z,17.23
2018-12-14T11:33:43.856Z,18.63
2018-12-14T11:36:12.317Z,16.33
2018-12-14T11:38:40.705Z,15.60
2018-12-14T11:41:09.152Z,17.57
2018-12-14T11:43:37.558Z,18.93
2018-12-14T11:46:05.957Z,19.77
2018-12-14T11:48:34.356Z,18.80
2018-12-14T11:51:02.785Z,16.03
2018-12-14T11:53:31.186Z,16.97
2018-12-14T11:55:59.625Z,18.07
2018-12-14T11:58:28.044Z,17.10
2018-12-14T12:00:56.464Z,20.43
2018-12-14T12:03:24.950Z,19.33
2018-12-14T12:05:53.381Z,19.97
2018-12-14T12:08:21.794Z,19.43
2018-12-14T12:10:50.188Z,19.73
2018-12-14T12:13:18.605Z,16.60
2018-12-14T12:15:46.984Z,16.93
2018-12-14T12:18:15.396Z,16.83
2018-12-14T12:20:43.817Z,19.10
2018-12-14T12:23:12.240Z,20.77
2018-12-14T12:25:40.653Z,18.60
2018-12-14T12:28:09.080Z,17.33
2018-12-14T12:30:37.500Z,18.73
2018-12-14T12:33:05.906Z,19.90
2018-12-14T12:35:34.335Z,19.37
2018-12-14T12:38:02.725Z,18.47
2018-12-14T12:40:31.129Z,19.77
2018-12-14T12:42:59.521Z,14.97
2018-12-14T12:45:27.933Z,16.40
2018-12-14T12:47:56.518Z,17.40
2018-12-14T12:50:24.987Z,16.73
2018-12-14T12:52:53.376Z,15.20
2018-12-14T12:55:21.780Z,15.30
2018-12-14T12:57:50.300Z,16.20
2018-12-14T13:00:18.719Z,16.43
2018-12-14T13:02:47.126Z,15.77
2018-12-14T13:05:15.539Z,17.03
2018-12-14T13:07:44.053Z,15.80
2018-12-14T13:10:12.625Z,15.97
2018-12-14T13:12:41.020Z,15.93
2018-12-14T13:15:09.593Z,16.10
2018-12-14T13:17:38.166Z,17.53
2018-12-14T13:20:06.677Z,17.77
2018-12-14T13:22:35.087Z,15.73
2018-12-14T13:25:03.630Z,17.40
2018-12-14T13:27:32.064Z,16.10
2018-12-14T13:30:00.551Z,18.63
2018-12-14T13:32:28.944Z,17.47
2018-12-14T13:34:57.357Z,15.77
2018-12-14T13:37:25.782Z,16.60
2018-12-14T13:39:54.217Z,16.47
2018-12-14T13:42:22.649Z,16.53
2018-12-14T13:44:51.396Z,18.27
2018-12-14T13:47:19.947Z,16.47
2018-12-14T13:49:48.376Z,15.73
2018-12-14T13:52:16.792Z,20.93
2018-12-14T13:54:45.190Z,16.50
2018-12-14T13:57:13.651Z,19.67
2018-12-14T13:59:42.151Z,16.10
2018-12-14T14:02:10.557Z,17.63
2018-12-14T14:04:38.980Z,17.47
2018-12-14T14:07:07.384Z,18.23
2018-12-14T14:09:35.807Z,16.70
2018-12-14T14:12:04.333Z,17.13
2018-12-14T14:14:32.792Z,17.63
2018-12-14T14:17:01.326Z,21.83
2018-12-14T14:19:29.975Z,16.03
2018-12-14T14:21:58.381Z,16.50
2018-12-14T14:24:26.804Z,20.37
2018-12-14T14:26:55.213Z,16.60
2018-12-14T14:29:23.662Z,16.00
2018-12-14T14:31:52.077Z,15.33
2018-12-14T14:34:20.493Z,15.83
2018-12-14T14:36:48.921Z,16.30
2018-12-14T14:39:17.304Z,15.20
2018-12-14T14:41:45.728Z,14.07
2018-12-14T14:44:14.152Z,13.50
2018-12-14T14:46:42.589Z,14.70
2018-12-14T14:49:11.001Z,17.60
2018-12-14T14:51:40.040Z,16.93
2018-12-14T14:54:08.425Z,15.60
2018-12-14T14:56:36.849Z,16.30
2018-12-14T14:59:05.271Z,18.10
2018-12-14T15:01:33.682Z,16.70
2018-12-14T15:04:02.305Z,14.07
2018-12-14T15:06:30.724Z,16.43
2018-12-14T15:08:59.364Z,16.63
2018-12-14T15:11:27.904Z,18.50
2018-12-14T15:13:56.469Z,16.23
2018-12-14T15:16:24.893Z,15.00
2018-12-14T15:18:53.308Z,15.73
2018-12-14T15:21:21.737Z,12.70
2018-12-14T15:23:50.283Z,16.63
2018-12-14T15:26:18.969Z,13.67
2018-12-14T15:28:47.433Z,13.90
2018-12-14T15:31:16.267Z,14.60
2018-12-14T15:33:44.795Z,13.27
2018-12-14T15:36:13.466Z,16.67
2018-12-14T15:38:42.553Z,18.77
2018-12-14T15:41:11.021Z,14.77
2018-12-14T15:43:39.469Z,17.03
2018-12-14T15:46:08.528Z,15.43
2018-12-14T15:48:37.028Z,16.63
2018-12-14T15:51:05.478Z,18.73
2018-12-14T15:53:33.891Z,18.33
2018-12-14T15:56:02.288Z,17.27
2018-12-14T15:58:30.740Z,18.17
2018-12-14T16:00:59.168Z,16.20
2018-12-14T16:03:27.547Z,19.20
2018-12-14T16:05:56.080Z,18.27
2018-12-14T16:08:24.489Z,19.10
2018-12-14T16:10:52.929Z,20.27
2018-12-14T16:13:21.425Z,15.57
2018-12-14T16:15:49.919Z,18.37
2018-12-14T16:18:18.535Z,20.33
2018-12-14T16:20:47.117Z,17.20
2018-12-14T16:23:15.521Z,14.57
2018-12-14T16:25:43.962Z,15.93
2018-12-14T16:28:12.479Z,19.50
2018-12-14T16:30:40.941Z,17.70
2018-12-14T16:33:09.390Z,17.13
2018-12-14T16:35:37.845Z,15.57
2018-12-14T16:38:06.256Z,17.27
2018-12-14T16:40:34.786Z,15.47
2018-12-14T16:43:03.184Z,17.50
2018-12-14T16:45:31.655Z,22.47
2018-12-14T16:48:00.522Z,28.33
2018-12-14T16:50:29.033Z,20.73
2018-12-14T16:52:57.605Z,18.70
2018-12-14T16:55:26.041Z,25.90
2018-12-14T16:57:54.471Z,19.27
2018-12-14T17:00:23.356Z,19.33
2018-12-14T17:02:51.804Z,18.17
2018-12-14T17:05:20.245Z,17.07
2018-12-14T17:07:48.684Z,18.43
2018-12-14T17:10:17.401Z,17.07
2018-12-14T17:12:46.041Z,17.37
2018-12-14T17:15:14.520Z,17.60
2018-12-14T17:17:42.945Z,16.50
2018-12-14T17:20:11.421Z,17.30
2018-12-14T17:22:39.877Z,16.80
2018-12-14T17:25:08.560Z,19.10
2018-12-14T17:27:37.030Z,19.43
2018-12-14T17:30:06.524Z,16.67
2018-12-14T17:32:34.965Z,18.13
2018-12-14T17:35:03.488Z,16.63
2018-12-14T17:37:31.965Z,17.63
2018-12-14T17:40:00.387Z,17.60
2018-12-14T17:42:28.837Z,20.67
2018-12-14T17:44:57.222Z,19.07
2018-12-14T17:47:25.604Z,17.80
2018-12-14T17:49:54.116Z,18.47
2018-12-14T17:52:22.529Z,18.17
2018-12-14T17:54:50.957Z,19.33
2018-12-14T17:57:19.362Z,17.87
2018-12-14T17:59:47.787Z,18.30
2018-12-14T18:02:16.224Z,15.80
2018-12-14T18:04:44.624Z,19.60
2018-12-14T18:07:13.021Z,17.57
2018-12-14T18:09:41.460Z,15.20
2018-12-14T18:12:10.040Z,16.93
2018-12-14T18:14:38.505Z,17.60
2018-12-14T18:17:06.933Z,16.53
2018-12-14T18:19:35.344Z,16.70
2018-12-14T18:22:03.753Z,17.47
2018-12-14T18:24:32.150Z,18.60
2018-12-14T18:27:00.565Z,16.77
2018-12-14T18:29:29.121Z,18.63
2018-12-14T18:31:57.547Z,17.30
2018-12-14T18:34:25.970Z,18.13
2018-12-14T18:36:54.398Z,17.90
2018-12-14T18:39:22.829Z,16.13
2018-12-14T18:41:51.251Z,17.60
2018-12-14T18:44:19.683Z,16.43
2018-12-14T18:46:48.466Z,16.27
2018-12-14T18:49:16.846Z,18.53
2018-12-14T18:51:45.260Z,19.50
2018-12-14T18:54:13.672Z,17.20
2018-12-14T18:56:42.109Z,16.53
2018-12-14T18:59:10.709Z,17.57
2018-12-14T19:01:39.240Z,17.30
2018-12-14T19:04:07.676Z,17.77
2018-12-14T19:06:36.109Z,15.87
2018-12-14T19:09:06.456Z,17.20
2018-12-14T19:11:34.869Z,19.00
2018-12-14T19:14:03.305Z,18.87
2018-12-14T19:16:31.709Z,21.77
2018-12-14T19:19:00.084Z,18.37
2018-12-14T19:21:28.520Z,19.23
2018-12-14T19:23:57.524Z,18.83
2018-12-14T19:26:25.951Z,21.07
2018-12-14T19:28:54.377Z,17.93
2018-12-14T19:31:22.926Z,20.23
2018-12-14T19:33:51.335Z,18.93
2018-12-14T19:36:19.809Z,18.83
2018-12-14T19:38:48.201Z,17.80
2018-12-14T19:41:16.679Z,16.73
2018-12-14T19:43:45.092Z,19.07
2018-12-14T19:46:13.474Z,20.50
2018-12-14T19:48:41.888Z,19.37
2018-12-14T19:51:10.276Z,17.40
2018-12-14T19:53:38.670Z,20.20
2018-12-14T19:56:07.076Z,19.20
2018-12-14T19:58:35.504Z,19.53
2018-12-14T20:01:03.917Z,20.90
2018-12-14T20:03:32.344Z,19.43
2018-12-14T20:06:00.728Z,19.57
2018-12-14T20:08:29.141Z,19.00
2018-12-14T20:10:57.535Z,19.93
2018-12-14T20:13:25.951Z,17.90
2018-12-14T20:15:57.597Z,18.80
2018-12-14T20:18:24.789Z,20.03
2018-12-14T20:20:53.250Z,14.27
2018-12-14T20:23:21.641Z,16.50
2018-12-14T20:25:50.048Z,18.50
2018-12-14T20:28:18.432Z,19.10
2018-12-14T20:30:46.850Z,18.27
2018-12-14T20:33:15.354Z,18.67
2018-12-14T20:35:43.728Z,20.63
2018-12-14T20:38:12.376Z,20.50
2018-12-14T20:40:40.760Z,17.90
2018-12-14T20:43:09.188Z,17.30
2018-12-14T20:45:37.577Z,20.53
2018-12-14T20:48:06.043Z,17.27
2018-12-14T20:50:34.462Z,16.83
2018-12-14T20:53:02.866Z,16.83
2018-12-14T20:55:31.250Z,15.67
2018-12-14T20:57:59.674Z,16.23
2018-12-14T21:00:28.068Z,17.03
2018-12-14T21:02:56.472Z,18.33
2018-12-14T21:05:24.854Z,16.17
2018-12-14T21:07:53.296Z,16.20
2018-12-14T21:10:21.681Z,16.40
2018-12-14T21:12:50.093Z,17.67
2018-12-14T21:15:18.511Z,16.17
2018-12-14T21:17:46.939Z,15.57
2018-12-14T21:20:15.327Z,15.77
2018-12-14T21:22:43.732Z,15.73
2018-12-14T21:25:12.145Z,14.90
2018-12-14T21:27:40.526Z,17.13
2018-12-14T21:30:10.092Z,16.30
2018-12-14T21:32:38.477Z,17.17
2018-12-14T21:35:07.139Z,17.27
2018-12-14T21:37:35.648Z,15.37
2018-12-14T21:40:04.496Z,14.10
2018-12-14T21:42:34.277Z,17.13
2018-12-14T21:45:02.870Z,18.13
2018-12-14T21:47:31.276Z,14.73
2018-12-14T21:49:59.653Z,16.67
2018-12-14T21:52:28.098Z,17.80
2018-12-14T21:54:56.480Z,17.07
2018-12-14T21:57:24.925Z,15.53
2018-12-14T21:59:53.340Z,18.50
2018-12-14T22:02:21.784Z,18.83
2018-12-14T22:04:50.347Z,16.10
2018-12-14T22:07:18.731Z,17.20
2018-12-14T22:09:48.319Z,16.80
2018-12-14T22:12:16.937Z,16.70
2018-12-14T22:14:45.337Z,18.10
2018-12-14T22:17:13.756Z,16.63
2018-12-14T22:19:42.168Z,17.13
2018-12-14T22:22:10.576Z,17.93
2018-12-14T22:24:39.005Z,17.80
2018-12-14T22:27:07.489Z,16.77
2018-12-14T22:29:35.892Z,17.33
2018-12-14T22:32:04.290Z,16.17
2018-12-14T22:34:32.700Z,17.50
2018-12-14T22:37:01.079Z,19.00
2018-12-14T22:39:29.789Z,16.83
2018-12-14T22:41:59.103Z,18.07
2018-12-14T22:44:27.480Z,18.10
2018-12-14T22:46:55.905Z,18.13
2018-12-14T22:49:24.310Z,15.43
2018-12-14T22:51:52.715Z,16.90
2018-12-14T22:54:21.137Z,18.83
2018-12-14T22:56:49.512Z,18.57
2018-12-14T22:59:17.932Z,18.33
2018-12-14T23:01:46.386Z,20.03
2018-12-14T23:04:21.578Z,19.60
2018-12-14T23:06:49.964Z,17.80
2018-12-14T23:09:18.384Z,23.33
2018-12-14T23:11:46.781Z,18.77
2018-12-14T23:14:15.166Z,19.50
2018-12-14T23:16:43.590Z,21.10
2018-12-14T23:19:11.962Z,21.60
2018-12-14T23:21:40.408Z,19.37
2018-12-14T23:24:08.785Z,19.67
2018-12-14T23:26:37.216Z,19.27
2018-12-14T23:29:05.620Z,20.13
2018-12-14T23:31:34.013Z,19.07
2018-12-14T23:34:02.413Z,18.90
2018-12-14T23:36:30.781Z,18.50
2018-12-14T23:38:59.185Z,17.00
2018-12-14T23:41:27.597Z,19.87
2018-12-14T23:43:56.006Z,16.40
2018-12-14T23:46:24.400Z,18.30
2018-12-14T23:48:52.796Z,17.27
2018-12-14T23:51:21.196Z,15.80
2018-12-14T23:53:49.608Z,16.07
2018-12-14T23:56:18.123Z,17.77
2018-12-14T23:58:46.525Z,18.33
